Time;durP1;ratioP1;P1;durP2;ratioP2;P2;SDS_P1;SDS_P2;PMS_P1;PMS_P2;Temp;Humidity;BMP_temperature;BMP_pressure;BME280_temperature;BME280_humidity;BME280_pressure;Samples;Min_cycle;Max_cycle;Signal;HPM_P1;HPM_P2
2022/04/25 00:01:11;;;;;;;9.25;4.10;;;7.60;99.90;;;;;;5001803;28;20077;-87
2022/04/25 00:03:37;;;;;;;11.18;5.25;;;7.60;99.90;;;;;;5002565;28;20437;-87
2022/04/25 00:06:03;;;;;;;9.73;4.22;;;7.60;99.90;;;;;;5005554;28;20050;-87
2022/04/25 00:08:29;;;;;;;8.90;4.50;;;7.50;99.90;;;;;;5010932;28;20035;-87
2022/04/25 00:10:55;;;;;;;9.00;5.00;;;7.50;99.90;;;;;;5005018;28;20030;-87
2022/04/25 00:13:20;;;;;;;15.38;5.45;;;7.50;99.90;;;;;;5007011;28;20066;-87
2022/04/25 00:15:46;;;;;;;6.75;3.95;;;7.50;99.90;;;;;;5010156;28;20559;-87
2022/04/25 00:18:11;;;;;;;15.55;5.22;;;7.40;99.90;;;;;;5011593;28;20177;-87
2022/04/25 00:20:37;;;;;;;8.80;4.80;;;7.40;99.90;;;;;;5012412;28;20026;-87
2022/04/25 00:23:06;;;;;;;10.27;4.53;;;7.40;99.90;;;;;;5011356;28;20060;-87
2022/04/25 00:25:35;;;;;;;8.82;5.00;;;7.30;99.90;;;;;;5007171;28;20026;-87
2022/04/25 00:28:03;;;;;;;10.20;5.30;;;7.30;99.90;;;;;;5010830;28;20038;-88
2022/04/25 00:30:28;;;;;;;11.52;5.35;;;7.20;99.90;;;;;;5007534;28;20052;-87
2022/04/25 00:32:56;;;;;;;10.60;4.93;;;7.20;99.90;;;;;;5009257;28;20842;-87
2022/04/25 00:35:22;;;;;;;8.35;4.93;;;7.20;99.90;;;;;;5011371;28;20026;-87
2022/04/25 00:37:49;;;;;;;11.15;4.97;;;7.20;99.90;;;;;;5008150;28;20045;-87
2022/04/25 00:40:15;;;;;;;11.80;5.22;;;7.10;99.90;;;;;;5010464;28;20026;-87
2022/04/25 00:42:41;;;;;;;10.45;5.75;;;7.10;99.90;;;;;;5011346;28;20552;-87
2022/04/25 00:45:11;;;;;;;12.43;5.57;;;7.10;99.90;;;;;;5009095;28;20091;-87
2022/04/25 00:47:37;;;;;;;14.05;6.32;;;7.10;99.90;;;;;;5005813;28;20034;-87
2022/04/25 00:50:03;;;;;;;10.68;5.55;;;7.00;99.90;;;;;;5007059;28;20023;-87
2022/04/25 00:52:29;;;;;;;9.45;5.25;;;7.00;99.90;;;;;;5007451;28;20030;-87
2022/04/25 00:54:54;;;;;;;10.38;5.85;;;7.00;99.90;;;;;;5008128;28;20520;-87
2022/04/25 00:57:20;;;;;;;10.90;5.30;;;6.90;99.90;;;;;;5005504;28;20081;-87
2022/04/25 00:59:47;;;;;;;9.75;5.75;;;6.90;99.90;;;;;;5008743;28;20394;-87
2022/04/25 01:02:13;;;;;;;10.30;5.70;;;6.90;99.90;;;;;;5010230;28;20042;-88
2022/04/25 01:04:38;;;;;;;11.68;5.97;;;6.90;99.90;;;;;;5011251;28;20042;-88
2022/04/25 01:07:04;;;;;;;12.00;6.50;;;6.90;99.90;;;;;;5004115;28;20042;-87
2022/04/25 01:09:30;;;;;;;11.60;5.68;;;6.80;99.90;;;;;;5011797;28;20026;-87
2022/04/25 01:11:58;;;;;;;12.27;6.35;;;6.80;99.90;;;;;;5004996;28;20038;-87
2022/04/25 01:14:24;;;;;;;15.70;6.97;;;6.80;99.90;;;;;;5009498;28;20026;-87
2022/04/25 01:16:49;;;;;;;15.18;6.28;;;6.80;99.90;;;;;;5006626;28;20049;-87
2022/04/25 01:19:15;;;;;;;12.95;6.43;;;6.70;99.90;;;;;;5007635;28;20033;-87
2022/04/25 01:21:56;;;;;;;10.98;6.75;;;6.70;99.90;;;;;;5008367;28;20037;-87
2022/04/25 01:27:16;;;;;;;17.00;6.47;;;6.70;99.90;;;;;;5009264;28;20406;-86
2022/04/25 01:29:43;;;;;;;14.63;6.28;;;6.70;99.90;;;;;;5005664;28;20113;-87
2022/04/25 01:32:09;;;;;;;11.80;6.13;;;6.70;99.90;;;;;;5006513;28;20026;-87
2022/04/25 01:34:37;;;;;;;13.77;6.43;;;6.60;99.90;;;;;;5027279;28;20091;-87
2022/04/25 01:37:05;;;;;;;13.63;6.90;;;6.70;99.90;;;;;;5004615;28;20471;-87
2022/04/25 01:39:32;;;;;;;11.45;6.75;;;6.60;99.90;;;;;;5026198;28;20022;-87
2022/04/25 01:41:57;;;;;;;12.73;6.68;;;6.70;99.90;;;;;;5010799;28;20048;-87
2022/04/25 01:44:23;;;;;;;13.10;6.97;;;6.60;99.90;;;;;;5008305;28;20462;-87
2022/04/25 01:46:48;;;;;;;14.25;7.70;;;6.60;99.90;;;;;;5006845;28;20053;-86
2022/04/25 01:49:14;;;;;;;15.18;7.70;;;6.60;99.90;;;;;;5008492;28;20046;-87
2022/04/25 01:51:39;;;;;;;14.10;7.38;;;6.60;99.90;;;;;;5008760;28;20109;-87
2022/04/25 01:54:05;;;;;;;13.18;7.18;;;6.60;99.90;;;;;;5001663;28;20113;-87
2022/04/25 01:56:32;;;;;;;15.20;7.93;;;6.60;99.90;;;;;;5006062;28;20025;-87
2022/04/25 01:58:57;;;;;;;13.57;6.78;;;6.50;99.90;;;;;;5009711;28;20026;-87
2022/04/25 02:01:23;;;;;;;14.77;7.25;;;6.50;99.90;;;;;;5009719;28;20210;-87
2022/04/25 02:03:48;;;;;;;15.85;8.23;;;6.50;99.90;;;;;;4999281;28;20373;-87
2022/04/25 02:06:14;;;;;;;13.13;6.60;;;6.50;99.90;;;;;;5001566;28;20096;-87
2022/04/25 02:08:39;;;;;;;15.50;7.30;;;6.50;99.90;;;;;;5004795;28;20033;-87
2022/04/25 02:11:21;;;;;;;18.58;8.25;;;6.50;99.90;;;;;;5007790;28;20132;-87
2022/04/25 02:13:46;;;;;;;12.90;7.55;;;6.40;99.90;;;;;;5003714;28;20029;-86
2022/04/25 02:16:12;;;;;;;14.25;7.82;;;6.40;99.90;;;;;;5007918;28;20022;-88
2022/04/25 02:18:41;;;;;;;13.85;7.80;;;6.40;99.90;;;;;;5007229;28;21454;-87
2022/04/25 02:21:07;;;;;;;12.65;6.47;;;6.40;99.90;;;;;;5000367;28;20022;-87
2022/04/25 02:23:33;;;;;;;14.80;7.97;;;6.30;99.90;;;;;;5005145;28;20533;-87
2022/04/25 02:25:59;;;;;;;16.35;7.65;;;6.30;99.90;;;;;;5004062;28;20088;-87
2022/04/25 02:28:25;;;;;;;13.35;7.28;;;6.30;99.90;;;;;;5002726;28;20497;-88
2022/04/25 02:30:51;;;;;;;17.63;8.20;;;6.30;99.90;;;;;;5002724;28;20497;-87
2022/04/25 02:33:18;;;;;;;11.68;8.02;;;6.20;99.90;;;;;;5005130;28;20026;-88
2022/04/25 02:35:44;;;;;;;12.88;8.00;;;6.20;99.90;;;;;;5007661;28;20033;-87
2022/04/25 02:38:10;;;;;;;16.88;8.68;;;6.20;99.90;;;;;;5007071;28;20030;-88
2022/04/25 02:40:36;;;;;;;18.73;8.70;;;6.20;99.90;;;;;;5006982;28;20140;-87
2022/04/25 02:43:02;;;;;;;17.58;8.68;;;6.10;99.90;;;;;;5008349;28;20029;-87
2022/04/25 02:45:27;;;;;;;14.73;8.75;;;6.10;99.90;;;;;;5006821;28;20075;-88
2022/04/25 02:47:53;;;;;;;17.52;9.65;;;6.10;99.90;;;;;;5003979;28;20046;-88
2022/04/25 02:50:19;;;;;;;16.10;8.80;;;6.20;99.90;;;;;;5001569;28;20026;-87
2022/04/25 02:52:44;;;;;;;16.85;8.50;;;6.10;99.90;;;;;;5007853;28;20030;-88
2022/04/25 02:55:10;;;;;;;18.58;8.98;;;6.10;99.90;;;;;;5005338;28;20018;-87
2022/04/25 02:57:36;;;;;;;18.42;9.13;;;6.00;99.90;;;;;;5006860;28;20117;-87
2022/04/25 03:00:01;;;;;;;19.75;11.40;;;6.00;99.90;;;;;;4998662;28;20034;-87
2022/04/25 03:02:27;;;;;;;14.77;8.63;;;6.00;99.90;;;;;;4999217;28;20466;-88
2022/04/25 03:04:53;;;;;;;17.83;8.95;;;6.00;99.90;;;;;;5005603;28;20494;-87
2022/04/25 03:07:18;;;;;;;18.58;9.40;;;6.00;99.90;;;;;;5005049;28;20062;-87
2022/04/25 03:09:44;;;;;;;17.33;9.75;;;6.00;99.90;;;;;;4999315;28;20022;-87
2022/04/25 03:12:09;;;;;;;36.70;9.77;;;6.00;99.90;;;;;;5002797;28;20132;-87
2022/04/25 03:14:35;;;;;;;17.08;8.73;;;5.90;99.90;;;;;;5000025;28;20064;-87
2022/04/25 03:17:01;;;;;;;17.05;9.90;;;5.90;99.90;;;;;;5002556;28;20056;-87
2022/04/25 03:19:27;;;;;;;19.13;9.50;;;5.90;99.90;;;;;;5000808;28;20022;-87
2022/04/25 03:21:53;;;;;;;19.98;9.63;;;5.80;99.90;;;;;;4997366;28;20117;-87
2022/04/25 03:24:18;;;;;;;18.80;9.48;;;5.80;99.90;;;;;;5004330;28;20117;-87
2022/04/25 03:26:44;;;;;;;17.98;9.68;;;5.80;99.90;;;;;;4999138;28;20037;-87
2022/04/25 03:29:11;;;;;;;19.60;9.13;;;5.80;99.90;;;;;;5000770;28;20033;-87
2022/04/25 03:31:36;;;;;;;18.33;10.52;;;5.80;99.90;;;;;;5002689;28;20045;-87
2022/04/25 03:34:03;;;;;;;24.42;9.95;;;5.80;99.90;;;;;;5002536;28;20030;-87
2022/04/25 03:36:28;;;;;;;21.40;11.05;;;5.70;99.90;;;;;;5002742;28;20033;-87
2022/04/25 03:38:54;;;;;;;20.58;10.80;;;5.70;99.90;;;;;;5002885;28;20026;-87
2022/04/25 03:41:20;;;;;;;21.13;11.48;;;5.70;99.90;;;;;;5010529;28;20030;-87
2022/04/25 03:43:46;;;;;;;22.52;10.80;;;5.70;99.90;;;;;;5009802;28;20108;-87
2022/04/25 03:46:13;;;;;;;17.90;10.82;;;5.70;99.90;;;;;;5005566;28;20485;-87
2022/04/25 03:48:41;;;;;;;20.27;11.25;;;5.70;99.90;;;;;;5005792;28;20034;-87
2022/04/25 03:51:07;;;;;;;19.80;11.32;;;5.70;99.90;;;;;;5005884;28;20471;-88
2022/04/25 03:53:33;;;;;;;19.33;11.68;;;5.70;99.90;;;;;;5010042;28;20033;-88
2022/04/25 03:58:42;;;;;;;24.13;12.27;;;5.70;99.90;;;;;;5013496;28;20072;-87
2022/04/25 04:01:08;;;;;;;23.08;11.38;;;5.80;99.90;;;;;;5012229;28;20045;-88
2022/04/25 04:03:34;;;;;;;22.00;11.23;;;5.90;99.90;;;;;;5007631;28;20040;-88
2022/04/25 04:06:00;;;;;;;19.75;11.95;;;5.90;99.90;;;;;;5007619;28;20046;-88
2022/04/25 04:08:26;;;;;;;19.15;10.13;;;6.00;99.90;;;;;;5008806;28;20030;-86
2022/04/25 04:10:51;;;;;;;21.88;11.13;;;6.10;99.90;;;;;;5007827;28;20030;-88
2022/04/25 04:13:17;;;;;;;24.98;12.00;;;6.10;99.90;;;;;;5007966;28;20041;-87
2022/04/25 04:15:43;;;;;;;23.98;11.93;;;6.20;99.90;;;;;;5011833;28;20017;-87
2022/04/25 04:18:08;;;;;;;18.10;11.23;;;6.20;99.90;;;;;;5009918;28;20025;-88
2022/04/25 04:20:35;;;;;;;23.05;11.65;;;6.30;99.90;;;;;;5010234;28;20032;-88
2022/04/25 04:23:01;;;;;;;21.60;12.27;;;6.40;99.90;;;;;;5009007;28;20673;-88
2022/04/25 04:25:27;;;;;;;18.38;10.73;;;6.40;99.90;;;;;;5010457;28;20025;-88
2022/04/25 04:27:53;;;;;;;17.73;10.98;;;6.50;99.90;;;;;;5005670;28;20125;-88
2022/04/25 04:30:18;;;;;;;19.50;11.20;;;6.50;99.90;;;;;;5006032;28;20569;-88
2022/04/25 04:32:44;;;;;;;25.92;12.43;;;6.50;99.90;;;;;;5006175;28;20030;-87
2022/04/25 04:36:17;;;;;;;21.48;11.63;;;6.50;99.90;;;;;;5008966;28;20032;-88
2022/04/25 04:38:02;;;;;;;17.90;11.40;;;6.60;99.90;;;;;;5011913;28;20030;-88
2022/04/25 04:40:28;;;;;;;18.92;11.10;;;6.60;99.90;;;;;;5001056;28;20080;-88
2022/04/25 04:42:54;;;;;;;22.42;12.20;;;6.60;99.90;;;;;;5006890;28;20426;-88
2022/04/25 04:45:20;;;;;;;20.20;11.50;;;6.60;99.90;;;;;;5009759;28;20032;-88
2022/04/25 04:47:45;;;;;;;21.27;10.82;;;6.60;99.90;;;;;;5005074;28;20030;-87
2022/04/25 04:50:16;;;;;;;18.80;11.52;;;6.60;99.90;;;;;;5005266;28;20030;-88
2022/04/25 04:52:53;;;;;;;18.92;10.68;;;6.70;99.90;;;;;;5001392;28;20026;-88
2022/04/25 04:55:19;;;;;;;22.05;11.60;;;6.70;99.90;;;;;;5008533;28;20026;-87
2022/04/25 04:57:44;;;;;;;21.52;11.75;;;6.70;99.90;;;;;;5008813;28;20398;-88
2022/04/25 05:00:15;;;;;;;25.85;12.90;;;6.70;99.90;;;;;;5008347;28;20030;-88
2022/04/25 05:02:42;;;;;;;19.75;11.85;;;6.70;99.90;;;;;;5008522;28;20026;-88
2022/04/25 05:05:08;;;;;;;22.70;13.10;;;6.80;99.90;;;;;;5007220;28;20517;-88
2022/04/25 05:07:34;;;;;;;24.30;13.00;;;6.80;99.90;;;;;;5010194;28;20038;-87
2022/04/25 05:10:02;;;;;;;22.88;12.65;;;6.70;99.90;;;;;;5006661;28;20038;-88
2022/04/25 05:12:27;;;;;;;19.58;12.82;;;6.80;99.90;;;;;;5013597;28;20030;-88
2022/04/25 05:14:54;;;;;;;25.52;13.18;;;6.80;99.90;;;;;;5011222;28;20545;-88
2022/04/25 05:17:19;;;;;;;23.23;14.00;;;6.80;99.90;;;;;;5014149;28;20033;-88
2022/04/25 05:19:45;;;;;;;22.15;13.30;;;6.90;99.90;;;;;;4999106;28;20398;-88
2022/04/25 05:22:10;;;;;;;24.13;12.95;;;6.90;99.90;;;;;;5006109;28;20058;-88
2022/04/25 05:24:36;;;;;;;22.33;12.70;;;7.00;99.90;;;;;;5003475;28;21126;-88
2022/04/25 05:27:02;;;;;;;19.80;13.00;;;7.00;99.90;;;;;;5008113;28;20038;-88
2022/04/25 05:29:27;;;;;;;23.45;14.30;;;7.10;99.90;;;;;;5006565;28;20121;-89
2022/04/25 05:31:54;;;;;;;23.60;13.05;;;7.10;99.90;;;;;;5009724;28;20030;-88
2022/04/25 05:34:19;;;;;;;22.15;12.68;;;7.20;99.90;;;;;;5013702;28;20455;-88
2022/04/25 05:36:45;;;;;;;20.98;12.63;;;7.20;99.90;;;;;;5005129;28;20057;-88
2022/04/25 05:39:11;;;;;;;25.23;13.73;;;7.30;99.90;;;;;;5007903;28;20471;-88
2022/04/25 05:41:38;;;;;;;23.30;14.57;;;7.30;99.90;;;;;;5013394;28;20025;-88
2022/04/25 05:44:04;;;;;;;22.63;14.00;;;7.40;99.90;;;;;;5003261;28;20037;-88
2022/04/25 05:46:30;;;;;;;27.40;14.13;;;7.40;99.90;;;;;;5013093;28;20038;-88
2022/04/25 05:54:25;;;;;;;27.25;14.40;;;7.50;99.90;;;;;;5003077;28;20040;-87
2022/04/25 05:56:51;;;;;;;22.48;14.18;;;7.60;99.90;;;;;;5011385;28;20038;-87
2022/04/25 05:59:17;;;;;;;21.60;13.88;;;7.60;99.90;;;;;;5012881;28;20544;-89
2022/04/25 06:01:43;;;;;;;25.30;14.10;;;7.70;99.90;;;;;;5012017;28;20025;-89
2022/04/25 06:04:08;;;;;;;29.50;15.50;;;7.70;99.90;;;;;;5013815;28;20080;-88
2022/04/25 06:06:34;;;;;;;22.98;13.50;;;7.80;99.90;;;;;;5016346;28;20040;-88
2022/04/25 06:09:00;;;;;;;20.42;13.15;;;7.80;99.90;;;;;;5023941;28;20018;-87
2022/04/25 06:11:26;;;;;;;25.67;15.52;;;7.80;99.90;;;;;;5017058;28;20021;-88
2022/04/25 06:13:53;;;;;;;26.45;15.45;;;7.80;99.90;;;;;;5015561;28;20027;-88
2022/04/25 06:16:18;;;;;;;26.55;15.57;;;7.80;99.90;;;;;;5017063;28;20025;-89
2022/04/25 06:18:44;;;;;;;24.30;14.50;;;7.80;99.90;;;;;;5007760;28;20030;-89
2022/04/25 06:21:09;;;;;;;27.92;16.70;;;7.80;99.90;;;;;;5012441;28;20035;-89
2022/04/25 06:23:40;;;;;;;26.23;16.40;;;7.90;99.90;;;;;;5157001;27;182204;-75
2022/04/25 06:26:06;;;;;;;26.25;16.15;;;7.90;99.90;;;;;;5145572;27;20031;-75
2022/04/25 06:28:31;;;;;;;30.45;17.50;;;7.90;99.90;;;;;;5143972;27;20104;-75
2022/04/25 06:30:58;;;;;;;21.50;14.55;;;7.90;99.90;;;;;;5143673;27;20018;-76
2022/04/25 06:33:24;;;;;;;28.67;17.45;;;7.90;99.90;;;;;;5146038;27;20095;-75
2022/04/25 06:35:50;;;;;;;28.08;16.25;;;8.00;99.90;;;;;;5142540;27;20449;-76
2022/04/25 06:38:18;;;;;;;25.10;17.38;;;8.10;99.90;;;;;;5147407;27;20023;-75
2022/04/25 06:40:44;;;;;;;28.33;17.55;;;8.10;99.90;;;;;;5149001;27;20038;-76
2022/04/25 06:43:10;;;;;;;29.38;18.10;;;8.20;99.90;;;;;;5145225;27;20031;-76
2022/04/25 06:45:36;;;;;;;28.20;19.33;;;8.30;99.90;;;;;;5146484;27;20022;-76
2022/04/25 06:48:01;;;;;;;31.60;20.10;;;8.30;99.90;;;;;;5145614;27;20072;-76
2022/04/25 06:50:27;;;;;;;30.15;19.13;;;8.40;99.90;;;;;;5147567;27;20501;-76
2022/04/25 06:52:53;;;;;;;33.15;22.00;;;8.50;99.90;;;;;;5146382;27;20101;-76
2022/04/25 06:55:19;;;;;;;32.33;21.17;;;8.50;99.90;;;;;;5144512;27;20027;-76
2022/04/25 06:57:47;;;;;;;32.00;22.58;;;8.60;99.90;;;;;;5131158;27;20036;-76
2022/04/25 07:03:35;;;;;;;31.67;21.55;;;8.70;99.90;;;;;;5120336;22;20067;-76
2022/04/25 07:06:00;;;;;;;32.65;21.80;;;8.70;99.90;;;;;;5052310;28;20104;-76
2022/04/25 07:08:26;;;;;;;34.83;22.60;;;8.70;99.90;;;;;;5066868;28;20029;-76
2022/04/25 07:10:51;;;;;;;37.15;23.27;;;8.60;99.90;;;;;;5066819;28;20028;-77
2022/04/25 07:13:18;;;;;;;37.90;24.60;;;8.60;99.90;;;;;;5067191;28;20064;-76
2022/04/25 07:15:43;;;;;;;38.38;24.67;;;8.60;99.90;;;;;;5066195;28;20380;-76
2022/04/25 07:18:09;;;;;;;34.70;24.10;;;8.60;99.90;;;;;;5045709;28;20021;-76
2022/04/25 07:20:34;;;;;;;37.72;24.45;;;8.60;99.90;;;;;;5173603;22;20060;-76
2022/04/25 07:31:13;;;;;;;41.38;25.67;;;8.70;99.90;;;;;;5078364;28;20078;-76
2022/04/25 07:33:43;;;;;;;41.63;26.35;;;8.80;99.90;;;;;;5075908;28;20377;-76
2022/04/25 07:36:09;;;;;;;35.60;25.35;;;8.80;99.90;;;;;;5069949;28;20028;-76
2022/04/25 07:38:36;;;;;;;34.55;23.77;;;8.80;99.90;;;;;;5074478;28;20033;-76
2022/04/25 07:41:02;;;;;;;35.92;23.95;;;8.80;99.90;;;;;;5056968;28;20405;-76
2022/04/25 07:43:31;;;;;;;34.78;23.23;;;8.80;99.90;;;;;;5078424;28;20082;-76
2022/04/25 07:45:56;;;;;;;34.08;22.67;;;8.80;99.90;;;;;;5071625;28;20115;-76
2022/04/25 07:48:23;;;;;;;33.75;23.92;;;8.90;99.90;;;;;;5073177;28;20024;-76
2022/04/25 07:50:48;;;;;;;36.50;24.17;;;8.90;99.90;;;;;;5063581;28;20587;-76
2022/04/25 07:53:14;;;;;;;33.85;21.45;;;9.00;99.90;;;;;;5073591;28;20397;-76
2022/04/25 07:55:40;;;;;;;36.30;23.13;;;9.00;99.90;;;;;;5066007;28;20048;-76
2022/04/25 07:58:08;;;;;;;31.42;20.67;;;9.00;99.90;;;;;;5069834;28;20517;-75
2022/04/25 08:00:35;;;;;;;30.02;20.42;;;9.00;99.90;;;;;;5069940;28;20503;-75
2022/04/25 08:03:01;;;;;;;29.52;19.70;;;9.10;99.90;;;;;;5066414;28;20203;-76
2022/04/25 08:05:26;;;;;;;26.38;17.85;;;9.10;99.90;;;;;;5067592;28;20025;-76
2022/04/25 08:07:52;;;;;;;27.13;18.85;;;9.10;99.90;;;;;;5054353;28;20091;-76
2022/04/25 08:10:18;;;;;;;25.88;17.15;;;9.10;99.90;;;;;;5066033;28;20025;-75
2022/04/25 08:18:13;;;;;;;26.60;16.70;;;9.10;99.90;;;;;;5068264;28;20058;-75
2022/04/25 08:20:39;;;;;;;21.77;15.75;;;9.10;99.90;;;;;;5081495;28;20412;-76
2022/04/25 08:23:10;;;;;;;23.73;16.98;;;9.00;99.90;;;;;;5067003;28;20084;-75
2022/04/25 08:25:36;;;;;;;24.00;17.80;;;9.00;99.90;;;;;;5065412;28;20033;-75
2022/04/25 08:28:04;;;;;;;26.92;18.00;;;9.00;99.90;;;;;;5056986;28;20101;-74
2022/04/25 08:30:30;;;;;;;22.98;16.30;;;9.10;99.90;;;;;;5062834;28;20025;-75
2022/04/25 08:32:56;;;;;;;22.20;16.08;;;9.10;99.90;;;;;;5068527;28;20516;-75
2022/04/25 08:35:22;;;;;;;26.08;17.38;;;9.00;99.90;;;;;;5070594;28;20033;-74
2022/04/25 08:37:48;;;;;;;27.17;18.38;;;8.90;99.90;;;;;;5069771;28;20058;-75
2022/04/25 08:40:14;;;;;;;25.02;18.08;;;8.90;99.90;;;;;;5066085;28;20610;-74
2022/04/25 08:42:39;;;;;;;26.80;18.08;;;8.90;99.90;;;;;;5069010;28;20068;-75
2022/04/25 08:45:06;;;;;;;31.10;20.52;;;8.90;99.90;;;;;;5066189;28;20029;-75
2022/04/25 08:47:39;;;;;;;28.52;18.67;;;8.80;99.90;;;;;;5061171;28;20112;-74
2022/04/25 08:50:05;;;;;;;27.38;19.10;;;8.90;99.90;;;;;;5053389;28;20043;-75
2022/04/25 08:52:31;;;;;;;29.63;19.92;;;8.90;99.90;;;;;;5071767;28;20036;-75
2022/04/25 08:55:00;;;;;;;32.67;20.77;;;9.00;99.90;;;;;;5070766;28;20021;-75
2022/04/25 08:57:28;;;;;;;28.23;18.50;;;9.00;99.90;;;;;;5062747;28;20028;-75
2022/04/25 08:59:57;;;;;;;34.17;20.17;;;9.00;99.90;;;;;;5069131;28;20188;-75
2022/04/25 09:02:23;;;;;;;31.52;20.25;;;9.00;99.90;;;;;;5069074;28;20037;-75
2022/04/25 09:04:50;;;;;;;27.48;19.42;;;9.00;99.90;;;;;;5071013;28;20033;-75
2022/04/25 09:07:17;;;;;;;32.35;20.75;;;9.10;99.90;;;;;;5076739;28;20028;-75
2022/04/25 09:09:43;;;;;;;30.48;19.77;;;9.10;99.90;;;;;;5069737;28;20159;-75
2022/04/25 09:12:17;;;;;;;32.80;18.52;;;9.10;99.90;;;;;;5071280;28;20031;-75
2022/04/25 09:14:44;;;;;;;33.03;20.25;;;9.20;99.90;;;;;;5066072;28;20485;-75
2022/04/25 09:17:11;;;;;;;30.05;19.35;;;9.20;99.90;;;;;;5062724;28;20102;-75
2022/04/25 09:19:38;;;;;;;31.98;20.02;;;9.20;99.90;;;;;;5068806;28;20047;-75
2022/04/25 09:22:05;;;;;;;34.17;21.25;;;9.10;99.90;;;;;;5068617;28;20035;-75
2022/04/25 09:24:44;;;;;;;39.08;22.13;;;9.10;99.90;;;;;;5070092;28;20028;-76
2022/04/25 09:27:11;;;;;;;32.28;20.15;;;9.20;99.90;;;;;;5069024;28;20028;-76
2022/04/25 09:29:38;;;;;;;36.95;21.58;;;9.30;99.90;;;;;;5064497;28;20029;-75
2022/04/25 09:32:05;;;;;;;34.60;22.40;;;9.30;99.90;;;;;;5069095;28;20094;-75
2022/04/25 09:37:17;;;;;;;37.75;23.38;;;9.40;99.90;;;;;;5058979;28;20675;-75
2022/04/25 09:39:43;;;;;;;34.45;22.42;;;9.40;99.90;;;;;;5064619;28;20032;-75
2022/04/25 09:42:09;;;;;;;34.50;22.42;;;9.40;99.90;;;;;;5069019;28;20495;-75
2022/04/25 09:44:57;;;;;;;35.85;22.23;;;9.40;99.90;;;;;;5069947;28;20500;-76
2022/04/25 09:47:37;;;;;;;38.08;22.50;;;9.50;99.90;;;;;;5068873;28;20037;-76
2022/04/25 09:50:09;;;;;;;36.00;22.33;;;9.60;99.90;;;;;;5065856;28;20029;-76
2022/04/25 09:52:53;;;;;;;35.30;23.38;;;9.70;99.90;;;;;;5058179;28;20055;-76
2022/04/25 09:55:19;;;;;;;32.33;20.48;;;9.70;99.90;;;;;;5057049;28;20037;-76
2022/04/25 09:57:46;;;;;;;41.78;23.67;;;9.90;99.90;;;;;;5068967;28;20028;-75
2022/04/25 10:00:28;;;;;;;33.85;23.33;;;9.90;99.90;;;;;;5074636;28;20036;-75
2022/04/25 10:02:54;;;;;;;32.97;21.20;;;9.80;99.90;;;;;;5064839;28;20044;-75
2022/04/25 10:05:20;;;;;;;33.00;21.15;;;9.80;99.90;;;;;;5069298;28;20051;-76
2022/04/25 10:07:46;;;;;;;38.95;23.92;;;9.70;99.90;;;;;;5060667;28;20375;-76
2022/04/25 10:10:13;;;;;;;33.95;22.60;;;9.70;99.90;;;;;;5065936;28;20158;-75
2022/04/25 10:12:39;;;;;;;38.25;22.60;;;9.80;99.90;;;;;;5069253;28;20037;-76
2022/04/25 10:15:06;;;;;;;32.63;21.42;;;9.90;99.90;;;;;;5067253;28;20032;-75
2022/04/25 10:17:39;;;;;;;32.15;21.38;;;9.90;99.90;;;;;;5079533;28;20553;-76
2022/04/25 10:20:06;;;;;;;36.35;24.33;;;9.90;99.90;;;;;;5070832;28;20445;-75
2022/04/25 10:22:34;;;;;;;32.65;21.25;;;10.00;99.90;;;;;;5069492;28;20549;-75
2022/04/25 10:24:59;;;;;;;34.97;21.42;;;10.10;99.90;;;;;;5070740;28;20028;-75
2022/04/25 10:27:29;;;;;;;36.90;24.10;;;10.10;99.90;;;;;;5070863;28;20104;-75
2022/04/25 10:29:58;;;;;;;33.67;22.42;;;10.10;99.90;;;;;;5054080;28;20061;-76
2022/04/25 10:32:25;;;;;;;34.78;22.45;;;10.10;99.90;;;;;;5075273;28;20031;-75
2022/04/25 10:34:56;;;;;;;35.75;22.38;;;10.20;99.90;;;;;;5078037;28;20130;-76
2022/04/25 10:37:33;;;;;;;38.00;23.45;;;10.20;99.90;;;;;;5070995;28;20025;-76
2022/04/25 10:40:04;;;;;;;39.60;23.95;;;10.20;99.90;;;;;;5070522;28;20388;-75
2022/04/25 10:45:14;;;;;;;35.20;24.05;;;10.10;99.90;;;;;;5058834;28;20090;-75
2022/04/25 10:47:58;;;;;;;36.95;23.15;;;10.10;99.90;;;;;;5069784;28;20469;-75
2022/04/25 10:50:24;;;;;;;37.53;22.23;;;10.30;99.90;;;;;;5067624;28;20480;-76
2022/04/25 10:55:36;;;;;;;39.30;23.15;;;10.40;99.90;;;;;;5070785;28;20039;-76
2022/04/25 10:58:01;;;;;;;35.08;22.17;;;10.50;99.90;;;;;;5061765;28;20025;-75
2022/04/25 11:00:42;;;;;;;37.17;22.30;;;10.50;99.90;;;;;;5069646;28;20111;-75
2022/04/25 11:03:23;;;;;;;33.55;22.65;;;10.60;99.90;;;;;;5055184;28;20098;-75
2022/04/25 11:05:58;;;;;;;36.63;22.33;;;10.60;99.90;;;;;;5068562;28;20107;-76
2022/04/25 11:08:26;;;;;;;32.85;21.95;;;10.70;99.90;;;;;;5071331;28;20028;-76
2022/04/25 11:11:16;;;;;;;35.47;22.45;;;10.80;99.90;;;;;;5073612;28;20181;-76
2022/04/25 11:13:50;;;;;;;35.70;22.00;;;11.00;99.90;;;;;;5068774;28;20032;-76
2022/04/25 11:16:18;;;;;;;32.55;21.08;;;11.00;99.90;;;;;;5069091;28;20197;-75
2022/04/25 11:18:45;;;;;;;37.47;22.35;;;10.90;99.90;;;;;;5072949;28;20488;-77
2022/04/25 11:21:16;;;;;;;34.58;22.55;;;10.80;99.90;;;;;;5069036;28;20048;-76
2022/04/25 11:23:44;;;;;;;37.28;21.05;;;10.70;99.90;;;;;;5077244;28;20431;-76
2022/04/25 11:26:33;;;;;;;35.97;23.13;;;10.70;99.90;;;;;;5073269;28;20027;-76
2022/04/25 11:29:09;;;;;;;36.05;21.30;;;10.70;99.90;;;;;;5061323;28;20036;-77
2022/04/25 11:31:39;;;;;;;35.30;21.67;;;10.70;99.90;;;;;;5073469;28;20059;-77
2022/04/25 11:34:07;;;;;;;39.95;22.60;;;10.70;99.90;;;;;;5073728;28;20044;-76
2022/04/25 11:36:41;;;;;;;36.45;22.38;;;10.70;99.90;;;;;;5071521;28;20094;-75
2022/04/25 11:41:51;;;;;;;33.38;21.10;;;10.80;99.90;;;;;;5070375;28;20504;-74
2022/04/25 11:44:16;;;;;;;31.50;21.08;;;10.90;99.90;;;;;;5070849;28;20032;-74
2022/04/25 11:46:43;;;;;;;33.40;21.52;;;10.90;99.90;;;;;;5072641;28;20418;-75
2022/04/25 11:49:09;;;;;;;37.28;23.00;;;11.00;99.90;;;;;;5071984;28;20404;-75
2022/04/25 11:51:38;;;;;;;32.70;21.30;;;11.20;99.90;;;;;;5072964;28;20028;-75
2022/04/25 11:54:09;;;;;;;36.08;22.38;;;11.20;99.90;;;;;;5073610;28;20043;-75
2022/04/25 11:56:39;;;;;;;32.47;20.38;;;11.30;99.90;;;;;;5073964;28;20025;-75
2022/04/25 11:59:22;;;;;;;35.15;22.02;;;11.40;99.90;;;;;;5074029;28;20146;-74
2022/04/25 12:01:52;;;;;;;31.58;20.58;;;11.50;99.90;;;;;;5056604;28;20037;-74
2022/04/25 12:04:34;;;;;;;32.40;20.83;;;11.50;99.90;;;;;;5073437;28;20021;-74
2022/04/25 12:07:05;;;;;;;28.73;18.98;;;11.50;99.90;;;;;;5072986;28;20012;-75
2022/04/25 12:15:36;;;;;;;30.70;19.42;;;11.30;99.90;;;;;;5072967;28;20025;-75
2022/04/25 12:18:14;;;;;;;30.83;19.02;;;11.20;99.90;;;;;;5052969;28;20025;-75
2022/04/25 12:20:42;;;;;;;26.10;17.67;;;11.20;99.90;;;;;;5071623;28;20454;-75
2022/04/25 12:23:08;;;;;;;29.83;19.10;;;11.20;99.90;;;;;;5071443;28;20078;-75
2022/04/25 12:25:44;;;;;;;31.05;17.48;;;11.10;99.90;;;;;;5072383;28;20031;-76
2022/04/25 12:28:12;;;;;;;27.83;18.65;;;11.00;99.90;;;;;;5071645;28;20112;-76
2022/04/25 12:30:53;;;;;;;29.98;19.40;;;11.00;99.90;;;;;;5072006;28;20035;-76
2022/04/25 12:33:31;;;;;;;27.48;18.52;;;11.00;99.90;;;;;;5053246;28;20033;-76
2022/04/25 12:36:20;;;;;;;25.88;17.98;;;11.00;99.90;;;;;;5066650;28;20544;-76
2022/04/25 12:39:03;;;;;;;26.73;17.15;;;10.90;99.90;;;;;;5070443;28;20043;-76
2022/04/25 12:41:37;;;;;;;25.63;16.75;;;10.90;99.90;;;;;;5071555;28;20103;-75
2022/04/25 12:44:11;;;;;;;26.17;16.40;;;10.80;99.90;;;;;;5065137;28;20035;-76
2022/04/25 12:46:45;;;;;;;26.73;17.50;;;10.80;99.90;;;;;;5072867;28;20033;-76
2022/04/25 12:49:13;;;;;;;27.92;17.98;;;11.00;99.90;;;;;;5080110;28;20024;-76
2022/04/25 12:51:47;;;;;;;30.85;19.02;;;11.00;99.90;;;;;;5080003;28;20116;-76
2022/04/25 12:54:28;;;;;;;27.95;16.90;;;11.00;99.90;;;;;;5052885;28;20032;-76
2022/04/25 12:57:09;;;;;;;28.25;16.83;;;11.10;99.90;;;;;;5052199;28;20025;-76
2022/04/25 12:59:36;;;;;;;27.30;17.13;;;11.20;99.90;;;;;;5070428;28;20068;-76
2022/04/25 13:02:12;;;;;;;24.40;16.98;;;11.30;99.90;;;;;;5071793;28;20500;-76
2022/04/25 13:04:56;;;;;;;27.33;17.70;;;11.30;99.90;;;;;;5071020;28;20160;-76
2022/04/25 13:07:38;;;;;;;29.25;17.20;;;11.20;99.90;;;;;;5070212;28;20369;-76
2022/04/25 13:10:11;;;;;;;21.40;15.48;;;11.20;99.90;;;;;;5071848;28;20021;-76
2022/04/25 13:12:39;;;;;;;24.83;15.10;;;11.10;99.90;;;;;;5071794;28;20063;-76
2022/04/25 13:15:06;;;;;;;23.92;15.80;;;11.00;99.90;;;;;;5069782;28;20109;-75
2022/04/25 13:17:32;;;;;;;24.98;15.18;;;11.00;99.90;;;;;;5071284;28;20032;-76
2022/04/25 13:19:58;;;;;;;27.13;16.17;;;11.00;99.90;;;;;;5070727;28;20248;-76
2022/04/25 13:22:24;;;;;;;24.70;15.55;;;11.10;99.90;;;;;;5077270;28;20106;-76
2022/04/25 13:24:49;;;;;;;29.58;15.98;;;11.10;99.90;;;;;;5072367;28;20033;-75
2022/04/25 13:27:15;;;;;;;25.92;15.85;;;11.30;99.90;;;;;;5070753;28;20388;-76